Time;durP1;ratioP1;P1;durP2;ratioP2;P2;SDS_P1;SDS_P2;PMS_P1;PMS_P2;Temp;Humidity;BMP_temperature;BMP_pressure;BME280_temperature;BME280_humidity;BME280_pressure;Samples;Min_cycle;Max_cycle;Signal;HPM_P1;HPM_P2
2023/09/06 00:01:18;;;;;;;13.77;12.35;;;;;;;-144.30;97.00;85098.25;5110563;28;20191;-50
2023/09/06 00:03:46;;;;;;;13.80;12.13;;;;;;;-144.30;96.60;85050.53;5110157;28;20615;-58
2023/09/06 00:06:13;;;;;;;13.52;11.93;;;;;;;-144.30;96.91;85106.22;5110584;28;20577;-57
2023/09/06 00:08:40;;;;;;;12.77;11.63;;;;;;;-144.30;96.92;85092.28;5110479;28;20206;-48
2023/09/06 00:11:07;;;;;;;12.30;11.15;;;;;;;-144.30;96.33;85110.19;5110476;28;20197;-48
2023/09/06 00:13:35;;;;;;;11.95;10.82;;;;;;;-144.30;96.29;85078.38;5110543;28;20588;-49
2023/09/06 00:16:03;;;;;;;12.75;10.35;;;;;;;-144.30;95.83;85076.38;5110111;28;20195;-50
2023/09/06 00:18:30;;;;;;;13.75;11.02;;;;;;;-144.30;95.74;85096.25;5110145;28;20194;-58
2023/09/06 00:21:43;;;;;;;13.23;11.35;;;;;;;-144.30;95.42;85114.16;5110003;28;20194;-57
2023/09/06 00:24:13;;;;;;;10.73;9.85;;;;;;;-144.30;95.19;85070.44;5109326;28;20609;-50
2023/09/06 00:26:40;;;;;;;10.93;10.05;;;;;;;-144.30;95.06;85096.25;5109860;28;20214;-51
2023/09/06 00:29:07;;;;;;;19.33;11.57;;;;;;;-144.30;95.22;85078.38;5110189;28;20205;-51
2023/09/06 00:31:34;;;;;;;11.55;10.60;;;;;;;-144.30;94.94;85070.44;5110060;28;20198;-50
2023/09/06 00:34:01;;;;;;;11.77;10.68;;;;;;;-144.30;94.56;85070.44;5110021;28;20198;-50
2023/09/06 00:36:29;;;;;;;12.02;10.68;;;;;;;-144.30;94.76;85060.50;5110060;28;20645;-49
2023/09/06 00:38:57;;;;;;;11.48;10.38;;;;;;;-144.30;95.06;85082.34;5107060;28;20286;-50
2023/09/06 00:41:25;;;;;;;13.48;10.13;;;;;;;-144.30;95.16;85060.50;5109619;28;20734;-58
2023/09/06 00:43:52;;;;;;;11.93;10.52;;;;;;;-144.30;95.01;85094.28;5109574;28;20203;-50
2023/09/06 00:46:20;;;;;;;11.15;10.10;;;;;;;-144.30;95.20;85052.53;5109845;28;20683;-50
2023/09/06 00:48:50;;;;;;;12.93;9.50;;;;;;;-144.30;95.14;85072.41;5109708;28;20569;-50
2023/09/06 00:51:18;;;;;;;11.05;9.13;;;;;;;-144.30;95.06;85054.53;5106862;28;20253;-50
2023/09/06 00:53:45;;;;;;;9.73;8.93;;;;;;;-144.30;95.18;85054.53;5109261;28;20201;-58
2023/09/06 00:56:14;;;;;;;11.43;10.18;;;;;;;-144.30;94.94;85052.53;5109368;28;20194;-51
2023/09/06 00:58:42;;;;;;;10.60;9.40;;;;;;;-144.30;95.09;85062.47;5109315;28;20191;-49
2023/09/06 01:01:11;;;;;;;10.18;9.27;;;;;;;-144.30;95.07;85088.31;5109669;28;20565;-50
2023/09/06 01:03:40;;;;;;;9.95;9.23;;;;;;;-144.30;94.75;85088.31;5104353;28;20191;-50
2023/09/06 01:06:14;;;;;;;9.80;9.00;;;;;;;-144.30;94.89;85058.50;5108751;28;20222;-58
2023/09/06 01:08:46;;;;;;;10.55;9.70;;;;;;;-144.30;94.24;85090.31;5107574;28;20190;-50
2023/09/06 01:11:21;;;;;;;9.73;8.88;;;;;;;-144.30;94.09;85050.53;5109166;28;20198;-57
2023/09/06 01:13:51;;;;;;;8.90;8.20;;;;;;;-144.30;94.19;85066.44;5109117;28;20194;-58
2023/09/06 01:16:29;;;;;;;10.73;8.80;;;;;;;-144.30;94.60;85054.53;5106769;28;20251;-58
2023/09/06 01:18:56;;;;;;;10.27;9.38;;;;;;;-144.30;95.13;85090.31;5106127;28;20798;-57
2023/09/06 01:21:25;;;;;;;9.48;8.75;;;;;;;-144.30;95.13;85090.31;5109226;28;20648;-57
2023/09/06 01:23:55;;;;;;;10.60;9.75;;;;;;;-144.30;94.89;85092.28;5108921;28;20222;-57
2023/09/06 01:26:24;;;;;;;9.55;8.77;;;;;;;-144.30;95.06;85082.34;5108931;28;20218;-58
2023/09/06 01:28:51;;;;;;;12.32;9.00;;;;;;;-144.30;95.30;85044.59;5108876;28;20225;-58
2023/09/06 01:31:18;;;;;;;12.95;9.50;;;;;;;-144.30;95.05;85074.41;5108782;28;20725;-58
2023/09/06 01:33:45;;;;;;;13.23;11.45;;;;;;;-144.30;94.76;85072.41;5109087;28;20583;-58
2023/09/06 01:36:12;;;;;;;13.75;12.20;;;;;;;-144.30;94.80;85058.50;5109196;28;20187;-57
2023/09/06 01:38:39;;;;;;;10.50;9.68;;;;;;;-144.30;95.23;85040.59;5109062;28;20200;-57
2023/09/06 01:41:07;;;;;;;10.45;9.30;;;;;;;-144.30;95.21;85088.31;5108915;28;20584;-58
2023/09/06 01:43:34;;;;;;;9.25;8.40;;;;;;;-144.30;95.19;85114.16;5109195;28;20662;-57
2023/09/06 01:46:01;;;;;;;11.07;9.52;;;;;;;-144.30;95.06;85076.38;5108438;28;20626;-58
2023/09/06 01:48:28;;;;;;;16.60;11.65;;;;;;;-144.30;95.48;85078.38;5108650;28;20233;-58
2023/09/06 01:50:55;;;;;;;11.57;10.10;;;;;;;-144.30;95.97;85122.09;5108831;28;20749;-58
2023/09/06 01:53:23;;;;;;;15.68;12.68;;;;;;;-144.30;96.02;85054.53;5108698;28;20210;-58
2023/09/06 01:55:51;;;;;;;16.30;13.57;;;;;;;-144.30;95.71;85090.31;5109105;28;20578;-58
2023/09/06 01:58:19;;;;;;;11.25;10.13;;;;;;;-144.30;95.25;85066.44;5106144;28;20194;-57
2023/09/06 02:00:46;;;;;;;12.88;8.98;;;;;;;-144.30;95.05;85006.81;5108677;28;20659;-58
2023/09/06 02:03:15;;;;;;;9.00;8.10;;;;;;;-144.30;94.72;85060.50;5108700;28;20195;-58
2023/09/06 02:05:43;;;;;;;9.60;8.70;;;;;;;-144.30;95.17;85082.34;5108846;28;20751;-58
2023/09/06 02:08:10;;;;;;;9.10;8.38;;;;;;;-144.30;95.47;85090.31;5108822;28;20194;-58
2023/09/06 02:10:37;;;;;;;8.85;8.15;;;;;;;-144.30;95.47;85068.44;5105893;28;20194;-58
2023/09/06 02:13:04;;;;;;;9.88;8.88;;;;;;;-144.30;95.54;85074.41;5108325;28;20205;-51
2023/09/06 02:15:32;;;;;;;9.65;8.70;;;;;;;-144.30;96.01;85064.47;5108530;28;20477;-58
2023/09/06 02:17:59;;;;;;;9.98;9.27;;;;;;;-144.30;95.90;85086.31;5110200;28;20567;-50
2023/09/06 02:20:26;;;;;;;11.20;9.07;;;;;;;-144.30;95.81;85070.44;5112428;28;20201;-58
2023/09/06 02:22:56;;;;;;;9.80;8.80;;;;;;;-144.30;95.72;85058.50;5112178;28;20230;-50
2023/09/06 02:25:25;;;;;;;9.18;8.27;;;;;;;-144.30;95.45;84959.13;5112428;28;20201;-49
2023/09/06 02:27:52;;;;;;;11.77;10.68;;;;;;;-144.30;95.39;85070.44;5112460;28;20222;-50
2023/09/06 02:30:20;;;;;;;10.23;9.13;;;;;;;-144.30;95.63;85060.50;5112717;28;20278;-58
2023/09/06 02:32:49;;;;;;;9.27;8.52;;;;;;;-144.30;96.05;85042.59;5112336;28;20202;-58
2023/09/06 02:35:16;;;;;;;9.68;8.35;;;;;;;-144.30;96.03;85076.38;5112403;28;20191;-58
2023/09/06 02:37:43;;;;;;;10.23;9.48;;;;;;;-144.30;95.76;85088.31;5112319;28;20208;-51
2023/09/06 02:40:12;;;;;;;10.43;9.20;;;;;;;-144.30;95.94;85036.63;5112050;28;20202;-50
2023/09/06 02:42:39;;;;;;;9.43;8.63;;;;;;;-144.30;96.08;84804.06;5109941;28;20195;-51
2023/09/06 02:45:09;;;;;;;10.15;9.23;;;;;;;-144.30;96.01;85052.53;5111893;28;20198;-58
2023/09/06 02:47:39;;;;;;;12.20;9.27;;;;;;;-144.30;95.83;85078.38;5109233;28;20207;-50
2023/09/06 02:50:11;;;;;;;10.70;9.77;;;;;;;-144.30;97.18;85060.50;5111693;28;20194;-57
2023/09/06 02:52:38;;;;;;;12.10;10.05;;;;;;;-144.30;97.83;85076.38;5109167;28;20195;-49
2023/09/06 02:55:10;;;;;;;11.73;9.43;;;;;;;-144.30;98.24;85056.50;5111816;28;20301;-57
2023/09/06 02:57:38;;;;;;;10.55;8.88;;;;;;;-144.30;97.74;85032.66;5109173;28;20183;-59
2023/09/06 03:00:18;;;;;;;9.73;8.90;;;;;;;-144.30;98.22;84998.88;5111757;28;20191;-48
2023/09/06 03:02:46;;;;;;;11.07;9.10;;;;;;;-144.30;98.04;85080.38;5110380;28;20268;-49
2023/09/06 03:05:17;;;;;;;10.27;9.48;;;;;;;-144.30;98.54;85094.28;5111482;28;20723;-56
2023/09/06 03:07:49;;;;;;;9.55;8.68;;;;;;;-144.30;98.74;85094.28;5111505;28;20706;-53
2023/09/06 03:10:19;;;;;;;11.10;9.07;;;;;;;-144.30;98.36;85108.19;5111267;28;20183;-50
2023/09/06 03:12:47;;;;;;;10.07;9.10;;;;;;;-144.30;98.55;85068.44;5111503;28;20202;-51
2023/09/06 03:15:15;;;;;;;9.02;8.43;;;;;;;-144.30;98.14;85070.44;5111698;28;20289;-50
2023/09/06 03:17:46;;;;;;;9.48;8.77;;;;;;;-144.30;97.96;85066.44;5110814;28;20186;-50
2023/09/06 03:20:31;;;;;;;9.75;8.88;;;;;;;-144.30;98.62;85102.22;5110824;28;20198;-49
2023/09/06 03:22:59;;;;;;;10.10;9.07;;;;;;;-144.30;98.16;85078.38;5108358;28;20667;-57
2023/09/06 03:25:26;;;;;;;9.85;9.15;;;;;;;-144.30;98.15;85424.25;5111217;28;20190;-49
2023/09/06 03:27:59;;;;;;;11.80;9.13;;;;;;;-144.30;97.99;85068.44;5109801;28;20219;-49
2023/09/06 03:30:29;;;;;;;9.63;8.82;;;;;;;-144.30;98.07;85086.31;5110671;28;20217;-50
2023/09/06 03:32:57;;;;;;;10.77;9.98;;;;;;;-144.30;97.52;85062.47;5107984;28;20576;-50
2023/09/06 03:35:25;;;;;;;15.07;9.90;;;;;;;-144.30;97.14;85062.47;5110102;28;20206;-50
2023/09/06 03:37:52;;;;;;;10.98;9.65;;;;;;;-144.30;97.45;85058.50;5111036;28;20267;-57
2023/09/06 03:40:25;;;;;;;10.55;9.65;;;;;;;-144.30;97.42;85078.38;5111072;28;20273;-57
2023/09/06 03:42:54;;;;;;;11.40;10.45;;;;;;;-144.30;97.52;85114.16;5110154;28;20588;-50
2023/09/06 03:45:24;;;;;;;12.07;9.60;;;;;;;-144.30;97.41;85074.41;5110800;28;20691;-50
2023/09/06 03:47:52;;;;;;;10.10;9.32;;;;;;;-144.30;97.26;85074.41;5110223;28;20218;-50
2023/09/06 03:50:21;;;;;;;9.43;8.55;;;;;;;-144.30;96.97;85060.50;5110380;28;20194;-51
2023/09/06 03:52:50;;;;;;;11.50;9.07;;;;;;;-144.30;96.78;85114.16;5110279;28;20678;-50
2023/09/06 03:55:17;;;;;;;9.65;8.68;;;;;;;-144.30;96.71;85088.31;5109592;28;20660;-57
2023/09/06 03:57:44;;;;;;;15.23;8.95;;;;;;;-144.30;96.22;85074.41;5110447;28;20199;-58
2023/09/06 04:00:26;;;;;;;9.27;8.40;;;;;;;-144.30;96.13;85052.53;5104999;28;20202;-58
2023/09/06 04:02:54;;;;;;;9.13;8.40;;;;;;;-144.30;96.03;85082.34;5109974;28;20970;-58
2023/09/06 04:05:25;;;;;;;9.35;8.65;;;;;;;-144.30;96.40;85062.47;5109594;28;20198;-58
2023/09/06 04:07:56;;;;;;;10.82;8.32;;;;;;;-144.30;96.76;85082.34;5109664;28;20222;-57
2023/09/06 04:10:24;;;;;;;9.25;8.35;;;;;;;-144.30;96.58;85094.28;5109635;28;20650;-57
2023/09/06 04:12:53;;;;;;;9.43;8.57;;;;;;;-144.30;96.66;85074.41;5109569;28;20191;-57
2023/09/06 04:15:22;;;;;;;9.00;8.27;;;;;;;-144.30;96.41;85058.50;5109079;28;20205;-57
2023/09/06 04:17:59;;;;;;;20.23;9.43;;;;;;;-144.30;96.57;85050.53;5109793;28;20639;-57
2023/09/06 04:20:27;;;;;;;9.32;8.55;;;;;;;-144.30;96.59;85024.72;5110066;28;20191;-57
2023/09/06 04:22:56;;;;;;;9.48;8.60;;;;;;;-144.30;96.54;85040.59;5109671;28;20230;-57
2023/09/06 04:25:23;;;;;;;9.18;8.30;;;;;;;-144.30;96.71;85203.59;5107547;28;20202;-57
2023/09/06 04:27:54;;;;;;;9.25;8.27;;;;;;;-144.30;97.00;85066.44;5109254;28;20212;-57
2023/09/06 04:30:23;;;;;;;11.82;8.73;;;;;;;-144.30;97.00;85082.34;5109169;28;20202;-57
2023/09/06 04:32:49;;;;;;;9.73;8.80;;;;;;;-144.30;97.24;85090.31;5109424;28;20190;-56
2023/09/06 04:35:17;;;;;;;10.48;8.90;;;;;;;-144.30;97.20;85026.69;5109636;28;20187;-57
2023/09/06 04:37:44;;;;;;;11.35;8.95;;;;;;;-144.30;96.86;85036.63;5107444;28;20187;-50
2023/09/06 04:40:14;;;;;;;9.73;8.52;;;;;;;-144.30;96.70;85052.53;5108293;28;20625;-51
2023/09/06 04:42:41;;;;;;;16.00;8.77;;;;;;;-144.30;97.02;85056.50;5107101;28;20202;-49
2023/09/06 04:45:10;;;;;;;14.70;8.48;;;;;;;-144.30;96.80;85066.44;5108940;28;20213;-57
2023/09/06 04:47:39;;;;;;;10.10;8.32;;;;;;;-144.30;96.96;85076.38;5106620;28;20297;-57
2023/09/06 04:50:07;;;;;;;9.68;8.70;;;;;;;-144.30;97.00;85060.50;5109286;28;20198;-57
2023/09/06 04:52:38;;;;;;;9.65;8.85;;;;;;;-144.30;96.92;85042.59;5107480;28;20195;-50
2023/09/06 04:55:09;;;;;;;11.02;10.10;;;;;;;-144.30;96.77;85018.75;5107080;28;20202;-50
2023/09/06 04:57:37;;;;;;;10.90;9.90;;;;;;;-144.30;96.46;85050.53;5108915;28;20216;-58
2023/09/06 05:00:14;;;;;;;10.57;8.80;;;;;;;-144.30;96.71;85032.66;5108599;28;20194;-58
2023/09/06 05:02:43;;;;;;;12.35;9.70;;;;;;;-144.30;97.06;85068.44;5106117;28;20198;-58
2023/09/06 05:05:10;;;;;;;19.25;16.70;;;;;;;-144.30;96.99;85052.53;5108352;28;20198;-58
2023/09/06 05:07:37;;;;;;;11.43;10.25;;;;;;;-144.30;97.05;85040.59;5108973;28;20211;-51
2023/09/06 05:10:04;;;;;;;15.65;13.63;;;;;;;-144.30;97.18;85062.47;5107907;28;20224;-50
2023/09/06 05:12:31;;;;;;;17.85;15.75;;;;;;;-144.30;97.01;85002.84;5109979;28;20198;-52
2023/09/06 05:15:00;;;;;;;11.68;9.70;;;;;;;-144.30;96.78;85020.72;5109279;28;20194;-50
2023/09/06 05:17:27;;;;;;;11.90;10.35;;;;;;;-144.30;96.53;85022.72;5109237;28;20187;-50
2023/09/06 05:19:54;;;;;;;10.38;9.50;;;;;;;-144.30;96.37;85014.78;5109836;28;20195;-50
2023/09/06 05:22:22;;;;;;;10.23;9.32;;;;;;;-144.30;96.60;85024.72;5109431;28;20680;-51
2023/09/06 05:24:51;;;;;;;13.60;9.48;;;;;;;-144.30;96.29;85034.66;5108717;28;20183;-51
2023/09/06 05:27:20;;;;;;;15.30;13.63;;;;;;;-144.30;96.37;85030.66;5109397;28;20206;-59
2023/09/06 05:29:47;;;;;;;13.40;9.68;;;;;;;-144.30;96.27;85034.66;5109024;28;20244;-58
2023/09/06 05:32:18;;;;;;;12.50;9.65;;;;;;;-144.30;96.39;85050.53;5109045;28;20191;-57
2023/09/06 05:34:45;;;;;;;11.52;10.00;;;;;;;-144.30;96.03;85002.84;5109085;28;20566;-58
2023/09/06 05:37:12;;;;;;;12.20;10.27;;;;;;;-144.30;95.62;85008.81;5109312;28;20226;-59
2023/09/06 05:39:39;;;;;;;11.25;8.80;;;;;;;-144.30;95.21;84996.88;5108313;28;20194;-58
2023/09/06 05:42:07;;;;;;;11.20;10.10;;;;;;;-144.30;95.61;84963.09;5107167;28;20197;-59
2023/09/06 05:44:34;;;;;;;10.13;9.23;;;;;;;-144.30;95.38;84967.06;5108944;28;20655;-58
2023/09/06 05:47:01;;;;;;;10.32;9.43;;;;;;;-144.30;95.16;84979.00;5108636;28;20198;-58
2023/09/06 05:49:29;;;;;;;11.23;10.13;;;;;;;-144.30;94.29;84961.09;5108885;28;20191;-59
2023/09/06 05:51:56;;;;;;;10.80;9.80;;;;;;;-144.30;94.92;84996.88;5110772;28;20196;-58
2023/09/06 05:54:23;;;;;;;10.00;9.15;;;;;;;-144.30;94.82;84992.91;5113134;28;20204;-58
2023/09/06 05:56:50;;;;;;;10.70;9.60;;;;;;;-144.30;94.38;84979.00;5113187;28;20217;-59
2023/09/06 05:59:19;;;;;;;18.95;10.23;;;;;;;-144.30;93.83;84967.06;5110796;28;20195;-59
2023/09/06 06:01:49;;;;;;;15.80;9.90;;;;;;;-144.30;93.71;84941.22;5113405;28;20571;-58
2023/09/06 06:04:16;;;;;;;10.95;9.73;;;;;;;-144.30;93.73;84935.25;5113063;28;20190;-51
2023/09/06 06:06:44;;;;;;;11.80;10.70;;;;;;;-144.30;93.20;84947.19;5112950;28;20199;-52
2023/09/06 06:09:13;;;;;;;11.77;9.07;;;;;;;-144.30;93.23;84953.16;5113120;28;20318;-51
2023/09/06 06:11:40;;;;;;;11.70;8.50;;;;;;;-144.30;93.10;84931.28;5113338;28;20190;-53
2023/09/06 06:14:07;;;;;;;12.38;9.68;;;;;;;-144.30;92.63;84931.28;5112909;28;20190;-51
2023/09/06 06:16:35;;;;;;;8.95;8.15;;;;;;;-144.30;92.27;84959.13;5112796;28;20198;-58
2023/09/06 06:19:03;;;;;;;10.43;9.50;;;;;;;-144.30;92.06;84909.41;5113229;28;20222;-52
2023/09/06 06:21:31;;;;;;;10.32;9.23;;;;;;;-144.30;91.96;84923.34;5113048;28;20642;-53
2023/09/06 06:24:00;;;;;;;9.43;8.50;;;;;;;-144.30;91.61;84921.34;5112213;28;20231;-58
2023/09/06 06:26:27;;;;;;;11.07;10.07;;;;;;;-144.30;91.29;84915.38;5112263;28;20194;-58
2023/09/06 06:28:55;;;;;;;18.33;12.75;;;;;;;-144.30;91.33;84903.47;5112064;28;20214;-56
2023/09/06 06:31:22;;;;;;;10.73;8.82;;;;;;;-144.30;91.85;84917.38;5109586;28;20205;-56
2023/09/06 06:37:23;;;;;;;9.75;8.75;;;;;;;-144.30;90.73;84871.66;5005704;28;20232;-57
2023/09/06 06:39:52;;;;;;;10.52;8.80;;;;;;;-144.30;90.37;84861.72;5100759;28;20689;-57
2023/09/06 06:42:18;;;;;;;12.43;9.77;;;;;;;-144.30;90.46;84877.63;5112304;28;20221;-50
2023/09/06 06:44:47;;;;;;;35.90;27.30;;;;;;;-144.30;89.78;84728.56;5105567;28;20596;-50
2023/09/06 06:47:14;;;;;;;37.30;26.98;;;;;;;-144.30;89.69;84829.91;5112030;28;20202;-57
2023/09/06 06:49:41;;;;;;;32.65;25.02;;;;;;;-144.30;88.93;84784.19;5112212;28;20592;-57
2023/09/06 06:52:08;;;;;;;18.77;15.93;;;;;;;-144.30;88.28;84776.25;5111449;28;20293;-58
2023/09/06 06:54:35;;;;;;;13.00;10.10;;;;;;;-144.30;88.04;84760.34;5111398;28;20198;-50
2023/09/06 06:57:04;;;;;;;24.58;19.77;;;;;;;-144.30;87.60;84746.44;5111591;28;20689;-49
2023/09/06 06:59:31;;;;;;;21.60;16.92;;;;;;;-144.30;87.21;84696.75;5109607;28;20198;-50
2023/09/06 07:01:58;;;;;;;17.20;13.27;;;;;;;-144.30;87.28;84772.28;5111011;28;20198;-51
2023/09/06 07:04:25;;;;;;;20.25;16.73;;;;;;;-144.30;86.34;84672.91;5111053;28;20202;-50
2023/09/06 07:06:52;;;;;;;23.52;17.17;;;;;;;-144.30;86.24;84690.78;5111805;28;20205;-51
2023/09/06 07:09:19;;;;;;;22.38;19.15;;;;;;;-144.30;85.54;84655.00;5111950;28;20313;-50
2023/09/06 07:11:46;;;;;;;20.15;18.15;;;;;;;-144.30;85.23;84678.84;5107368;28;20336;-51
2023/09/06 07:14:14;;;;;;;13.27;11.77;;;;;;;-144.30;84.96;84633.16;5114135;28;20210;-49
2023/09/06 07:16:41;;;;;;;15.57;11.93;;;;;;;-144.30;85.16;84625.19;5101952;28;20194;-51
2023/09/06 07:19:08;;;;;;;17.55;12.23;;;;;;;-144.30;84.76;84637.13;5105672;28;20293;-51
2023/09/06 07:21:35;;;;;;;21.52;15.45;;;;;;;-144.30;84.29;84662.97;5107244;28;20206;-58
2023/09/06 07:24:02;;;;;;;18.85;16.50;;;;;;;-144.30;84.60;84664.94;5109490;28;20230;-51
2023/09/06 07:26:29;;;;;;;20.63;14.85;;;;;;;-144.30;84.58;84633.16;5110406;28;20202;-49
2023/09/06 07:28:56;;;;;;;16.90;13.68;;;;;;;-144.30;84.31;84668.94;5110842;28;20222;-50
2023/09/06 07:31:24;;;;;;;14.07;11.50;;;;;;;-144.30;84.48;84645.06;5111061;28;20194;-49
2023/09/06 07:33:51;;;;;;;21.42;16.13;;;;;;;-144.30;84.77;84629.19;5111046;28;20191;-59
2023/09/06 07:36:18;;;;;;;20.42;12.00;;;;;;;-144.30;84.78;84637.13;5111873;28;20203;-51
2023/09/06 07:38:45;;;;;;;21.10;10.93;;;;;;;-144.30;84.59;84563.59;5111893;28;20202;-50
2023/09/06 07:41:13;;;;;;;13.15;10.60;;;;;;;-144.30;84.54;84664.94;5111444;28;20201;-49
2023/09/06 07:43:40;;;;;;;22.08;14.68;;;;;;;-144.30;84.81;84664.94;5111788;28;20195;-58
2023/09/06 07:46:09;;;;;;;18.65;14.50;;;;;;;-144.30;84.48;84641.09;5111636;28;20194;-49
2023/09/06 07:48:38;;;;;;;16.50;11.98;;;;;;;-144.30;84.46;84605.31;5111295;28;20612;-58
2023/09/06 07:51:06;;;;;;;15.20;10.93;;;;;;;-144.30;84.73;84664.94;5111039;28;20198;-58
2023/09/06 07:53:33;;;;;;;14.73;12.20;;;;;;;-144.30;84.76;84666.94;5110897;28;20693;-58
2023/09/06 07:56:00;;;;;;;26.05;14.95;;;;;;;-144.30;84.72;84653.03;5111124;28;20627;-58
2023/09/06 07:58:27;;;;;;;20.02;14.57;;;;;;;-144.30;84.69;84657.00;5111835;28;20570;-50
2023/09/06 08:00:53;;;;;;;17.15;11.77;;;;;;;-144.30;84.79;84645.06;5111281;28;20198;-50
2023/09/06 08:03:20;;;;;;;21.63;11.45;;;;;;;-144.30;84.13;84637.13;5111433;28;20235;-50
2023/09/06 08:05:49;;;;;;;16.88;10.98;;;;;;;-144.30;83.95;84627.19;5111008;28;20195;-49
2023/09/06 08:08:15;;;;;;;11.02;10.02;;;;;;;-144.30;84.21;84593.41;5111709;28;20622;-50
2023/09/06 08:10:42;;;;;;;13.60;10.55;;;;;;;-144.30;83.85;84613.28;5111604;28;20212;-57
2023/09/06 08:13:10;;;;;;;11.85;10.00;;;;;;;-144.30;83.24;84565.56;5111267;28;20194;-57
2023/09/06 08:15:37;;;;;;;11.27;9.95;;;;;;;-144.30;83.39;84597.38;5111066;28;20198;-51
2023/09/06 08:18:05;;;;;;;15.88;10.05;;;;;;;-144.30;82.91;84537.75;5110622;28;20201;-51
2023/09/06 08:20:32;;;;;;;14.23;9.73;;;;;;;-144.30;82.80;84587.44;5110899;28;20198;-50
2023/09/06 08:23:00;;;;;;;11.77;9.90;;;;;;;-144.30;82.70;84559.63;5110824;28;20710;-58
2023/09/06 08:25:27;;;;;;;13.30;10.77;;;;;;;-144.30;82.49;84531.78;5111265;28;20194;-58
2023/09/06 08:27:54;;;;;;;18.23;9.20;;;;;;;-144.30;82.10;84539.75;5110756;28;20198;-59
2023/09/06 08:30:23;;;;;;;13.57;8.48;;;;;;;-144.30;81.90;84571.53;5110353;28;20202;-58
2023/09/06 08:32:51;;;;;;;10.18;8.95;;;;;;;-144.30;81.26;84525.81;5111066;28;20671;-59
2023/09/06 08:35:18;;;;;;;8.88;7.97;;;;;;;-144.30;81.21;84525.81;5110941;28;20203;-58
2023/09/06 08:37:46;;;;;;;10.30;7.97;;;;;;;-144.30;81.41;84446.31;5111056;28;20584;-58
2023/09/06 08:40:15;;;;;;;18.42;9.50;;;;;;;-144.30;80.85;84434.41;5110898;28;20247;-59
2023/09/06 08:42:45;;;;;;;18.33;9.70;;;;;;;-144.30;80.92;84456.25;5110763;28;20190;-59
2023/09/06 08:45:13;;;;;;;19.20;9.80;;;;;;;-144.30;80.06;84478.13;5110763;28;20198;-59
2023/09/06 08:47:40;;;;;;;11.10;8.10;;;;;;;-144.30;79.95;84472.16;5110735;28;20650;-58
2023/09/06 08:50:10;;;;;;;11.95;8.10;;;;;;;-144.30;80.07;84484.09;5110585;28;20785;-58
2023/09/06 08:52:40;;;;;;;9.30;8.35;;;;;;;-144.30;79.73;84501.97;5110624;28;20191;-58
2023/09/06 08:55:09;;;;;;;8.90;8.02;;;;;;;-144.30;79.69;84426.47;5110399;28;20194;-57
2023/09/06 08:57:38;;;;;;;15.32;8.88;;;;;;;-144.30;78.78;84422.47;5110145;28;20202;-58
2023/09/06 09:00:09;;;;;;;8.52;7.85;;;;;;;-144.30;78.85;84382.72;5110499;28;20194;-58
2023/09/06 09:02:36;;;;;;;11.43;9.50;;;;;;;-144.30;78.76;84384.72;5110402;28;20226;-58
2023/09/06 09:05:04;;;;;;;17.85;9.05;;;;;;;-144.30;78.41;84378.75;5110266;28;20194;-58
2023/09/06 09:07:31;;;;;;;15.95;8.70;;;;;;;-144.30;78.24;84376.78;5110387;28;20202;-58
2023/09/06 09:10:01;;;;;;;15.38;9.13;;;;;;;-144.30;78.11;84418.50;5109864;28;20222;-58
2023/09/06 09:12:29;;;;;;;9.52;8.63;;;;;;;-144.30;77.96;84376.78;5110189;28;20232;-50
2023/09/06 09:14:58;;;;;;;17.05;9.38;;;;;;;-144.30;77.16;84307.22;5109639;28;20191;-58
2023/09/06 09:17:25;;;;;;;16.63;11.52;;;;;;;-144.30;76.71;84352.91;5109612;28;20198;-58
2023/09/06 09:19:54;;;;;;;16.35;9.63;;;;;;;-144.30;75.77;84333.06;5109991;28;20187;-58
2023/09/06 09:22:25;;;;;;;11.95;9.20;;;;;;;-144.30;76.12;84195.94;5110313;28;20646;-58
2023/09/06 09:24:58;;;;;;;15.60;10.25;;;;;;;-144.30;75.96;84303.25;5069405;28;20192;-49
2023/09/06 09:27:27;;;;;;;11.48;9.05;;;;;;;-144.30;75.74;84325.09;5063500;28;20261;-49
2023/09/06 09:29:54;;;;;;;10.35;8.50;;;;;;;-144.30;75.74;84317.16;5068971;28;20219;-57
2023/09/06 09:32:22;;;;;;;15.85;9.10;;;;;;;-144.30;74.43;84291.31;5068397;28;20656;-59
2023/09/06 09:34:52;;;;;;;11.07;9.15;;;;;;;-144.30;73.46;84241.63;5069230;28;20195;-58
2023/09/06 09:37:19;;;;;;;11.27;9.05;;;;;;;-144.30;72.81;84197.91;5069233;28;20230;-58
2023/09/06 09:39:47;;;;;;;10.73;7.95;;;;;;;-144.30;70.46;84096.56;5069348;28;20191;-59
2023/09/06 09:42:15;;;;;;;13.70;8.13;;;;;;;-144.30;70.14;84029.00;5069454;28;20595;-59
2023/09/06 09:44:42;;;;;;;8.18;7.38;;;;;;;-144.30;68.33;83917.72;5069277;28;20200;-59
2023/09/06 09:47:11;;;;;;;8.98;7.93;;;;;;;-144.30;66.38;83806.44;5068515;28;20303;-58
2023/09/06 09:49:43;;;;;;;18.70;14.52;;;;;;;-144.30;64.87;83653.44;5063950;28;20223;-58
2023/09/06 09:52:12;;;;;;;28.63;19.80;;;;;;;-144.30;63.19;83659.41;5067566;28;20200;-59
2023/09/06 09:54:45;;;;;;;9.45;8.57;;;;;;;-144.30;57.97;83665.38;5066174;28;20275;-50
2023/09/06 09:57:13;;;;;;;8.82;7.88;;;;;;;-144.30;57.36;83595.81;5068352;28;20203;-51
2023/09/06 09:59:42;;;;;;;8.35;6.90;;;;;;;-144.30;57.10;83687.22;5069085;28;20210;-51
2023/09/06 10:02:15;;;;;;;10.10;7.32;;;;;;;-144.30;56.64;83579.94;5068672;28;20200;-58
2023/09/06 10:04:44;;;;;;;8.93;8.18;;;;;;;-144.30;55.39;83657.41;5069390;28;20585;-58
2023/09/06 10:07:14;;;;;;;10.05;7.68;;;;;;;-144.30;55.99;83679.28;5069093;28;20222;-58
2023/09/06 10:09:43;;;;;;;8.25;7.32;;;;;;;-144.30;55.25;83711.06;5069237;28;20220;-59
2023/09/06 10:12:12;;;;;;;12.82;8.63;;;;;;;-144.30;55.53;83726.97;5068981;28;20203;-60
2023/09/06 10:14:40;;;;;;;7.72;7.00;;;;;;;-144.30;54.81;83641.53;5068669;28;20196;-50
2023/09/06 10:17:08;;;;;;;8.30;6.88;;;;;;;-144.30;53.85;83671.34;5068653;28;20287;-49
2023/09/06 10:19:36;;;;;;;8.18;7.57;;;;;;;-144.30;52.71;83599.81;5069158;28;20192;-51
2023/09/06 10:22:06;;;;;;;12.35;7.53;;;;;;;-144.30;52.63;83611.72;5069079;28;20192;-51
2023/09/06 10:24:35;;;;;;;13.48;7.55;;;;;;;-144.30;51.85;83585.91;5105528;28;20229;-51
2023/09/06 10:27:03;;;;;;;7.28;6.55;;;;;;;-144.30;52.00;83568.00;5108876;28;20446;-59
2023/09/06 10:29:31;;;;;;;8.75;6.88;;;;;;;-144.30;51.69;83585.91;5108790;28;20214;-49
2023/09/06 10:32:03;;;;;;;7.75;7.03;;;;;;;-144.30;50.99;83534.22;5109006;28;20191;-60
2023/09/06 10:34:32;;;;;;;8.30;7.47;;;;;;;-144.30;51.38;83572.00;5108962;28;20197;-59
2023/09/06 10:37:01;;;;;;;9.80;8.48;;;;;;;-144.30;51.50;83585.91;5109156;28;20251;-59
2023/09/06 10:39:31;;;;;;;9.60;7.68;;;;;;;-144.30;51.28;83623.66;5109578;28;20191;-50
2023/09/06 10:42:28;;;;;;;8.88;8.00;;;;;;;-144.30;51.69;83607.75;5109181;28;20293;-50
2023/09/06 10:45:14;;;;;;;11.20;8.25;;;;;;;-144.30;51.92;83611.72;5110004;28;20243;-58
2023/09/06 10:47:42;;;;;;;13.07;8.68;;;;;;;-144.30;52.13;83667.34;5111236;28;20187;-58
2023/09/06 10:50:11;;;;;;;10.23;8.57;;;;;;;-144.30;52.20;83691.19;5112523;28;20215;-59
2023/09/06 10:52:42;;;;;;;8.40;7.75;;;;;;;-144.30;51.93;83639.53;5112785;28;20568;-50
2023/09/06 10:55:19;;;;;;;8.38;7.65;;;;;;;-144.30;51.39;83645.50;5112305;28;20201;-59
2023/09/06 10:58:04;;;;;;;7.97;7.43;;;;;;;-144.30;51.50;83609.75;5112537;28;20589;-51
2023/09/06 11:00:32;;;;;;;9.55;8.20;;;;;;;-144.30;51.64;83589.88;5112108;28;20273;-49
2023/09/06 11:03:17;;;;;;;11.95;8.27;;;;;;;-144.30;51.23;83611.72;5112530;28;20662;-58
2023/09/06 11:05:51;;;;;;;8.77;8.00;;;;;;;-144.30;50.24;83538.22;5112789;28;20195;-49
2023/09/06 11:08:29;;;;;;;9.45;8.52;;;;;;;-144.30;50.33;83560.06;5113095;28;20243;-50
2023/09/06 11:11:06;;;;;;;9.43;8.65;;;;;;;-144.30;49.98;83458.72;5112039;28;20251;-48
2023/09/06 11:13:33;;;;;;;9.65;8.23;;;;;;;-144.30;50.19;83552.13;5112512;28;20685;-49
2023/09/06 11:16:01;;;;;;;9.23;8.50;;;;;;;-144.30;50.54;83540.19;5111929;28;20252;-49
2023/09/06 11:18:30;;;;;;;11.77;8.82;;;;;;;-144.30;50.33;83458.72;5111974;28;20202;-51
2023/09/06 11:20:59;;;;;;;10.45;8.23;;;;;;;-144.30;50.21;83486.56;5112509;28;20209;-49